Fort Lawn, SC

11:31 PM EST on December 21, 2014 (GMT -0500)
Johnson Land & Cattle Co | Change Station
CLOSE
Current Station
Personal Weather Station
Location: Richburg, SC
Elevation: 463 ft
Nearby Weather Stations

Elev 463 ft 34.71 °N, 80.96 °W | Updated 43 seconds ago

Overcast
Overcast
45.3 °F
Feels Like 45 °F
N
1.0
Wind Variable Wind from NNE
Gusts 5.0 mph

Today
High -- | Low -- °F
--% Chance of Precip.
Yesterday
High -- | Low -- °F
Precip. -- in
7:26 AM 5:16 PM
New Moon, 0% visible
Pressure 30.17 in
Visibility 10.0 miles
Clouds Overcast 3200 ft
Windchill 45 °F
Dew Point 43 °F
Humidity 90%
Rainfall 0.00 in
Snow Depth Not available.
UV 0 out of 12
Pollen .30 out of 12
Air Quality Not available.
Flu Activity Not available.
METAR KDCM 220415Z AUTO 04008KT 10SM OVC032 08/03 A3017 RMK AO2

More Conditions Fewer Conditions

Pressure 30.17 in
Visibility 10.0 miles
Clouds Overcast 3200 ft
Windchill 45 °F
Dew Point 43 °F
Humidity 90%
Rainfall 0.00 in
Snow Depth Not available.
UV 0 out of 12
Pollen .30 out of 12
Air Quality Not available.
Flu Activity Not available.
METAR KDCM 220415Z AUTO 04008KT 10SM OVC032 08/03 A3017 RMK AO2

More Conditions Fewer Conditions

10-Day Weather Forecast

Almanac

Astronomy

Dec. 21, 2014 Rise Set
Actual Time
Civil Twilight
Nautical Twilight
Astronomical Twilight
Moon
Length of Visible Light
Length of Day
Tomorrow will be .
, % of the Moon is Illuminated

Today's Extremes

State Highs State Lows

Community

WunderPhotos

Upload Photos

1,779,540 photos uploaded!

WunderBlogs® & News

Nearby

Air Quality

  Air Quality AQ Index Pollutant
Not available.

Snow Depth

Station Depth Elevation

Earthquake Activity

City Distance Mag. Time & Date
Minimum magnitude displayed is 2.5.

Coastal Water Temperatures

Place Temperature

Nearby Weather Stations